Time,TemperatureF,DewpointF,PressureIn,WindDirection,WindDirectionDegrees,WindSpeedMPH,WindSpeedGustMPH,Humidity,HourlyPrecipIn,Conditions,Clouds,dailyrainin,SoftwareType,DateUTC
2013-03-12 00:00:00,69.5,63.8,29.94,SSE,158,11.7,20.7,82,0.00,CLR,OVC,0.00,WeatherDisplay:10.37,2013-03-12 04:00:00,
2013-03-12 00:01:00,69.5,63.8,29.93,South,189,9.9,13.8,82,0.00,CLR,OVC,0.00,WeatherDisplay:10.37,2013-03-12 04:01:00,
2013-03-12 00:07:00,69.3,63.6,29.93,South,174,8.3,11.5,82,0.00,CLR,OVC,0.00,WeatherDisplay:10.37,2013-03-12 04:07:00,
2013-03-12 00:12:00,69.3,63.6,29.94,South,189,10.5,13.8,82,0.00,CLR,OVC,0.00,WeatherDisplay:10.37,2013-03-12 04:12:00,
2013-03-12 00:17:00,69.2,63.8,29.94,SSW,203,8.7,15.0,83,0.00,CLR,OVC,0.00,WeatherDisplay:10.37,2013-03-12 04:17:00,
2013-03-12 00:22:00,69.2,63.8,29.94,SSW,210,5.0,11.4,83,0.00,CLR,OVC,0.00,WeatherDisplay:10.37,2013-03-12 04:22:00,
2013-03-12 00:27:00,69.1,63.7,29.95,SSW,208,7.8,17.3,83,0.00,CLR,OVC,0.00,WeatherDisplay:10.37,2013-03-12 04:27:00,
2013-03-12 00:32:00,68.8,63.8,29.94,South,182,7.3,11.5,84,0.00,CLR,OVC,0.00,WeatherDisplay:10.37,2013-03-12 04:32:00,
2013-03-12 00:37:00,68.8,63.8,29.93,SSW,212,9.2,12.7,84,0.00,CLR,OVC,0.00,WeatherDisplay:10.37,2013-03-12 04:37:00,
2013-03-12 00:42:00,68.4,63.4,29.93,SSW,196,8.7,13.8,84,0.00,CLR,OVC,0.00,WeatherDisplay:10.37,2013-03-12 04:42:00,
2013-03-12 00:47:00,68.5,63.8,29.93,South,175,6.7,9.2,85,0.00,CLR,OVC,0.00,WeatherDisplay:10.37,2013-03-12 04:47:00,
2013-03-12 00:52:00,68.4,63.7,29.93,SSW,199,7.7,10.4,85,0.00,CLR,OVC,0.00,WeatherDisplay:10.37,2013-03-12 04:52:00,
2013-03-12 00:57:00,68.5,63.8,29.93,South,175,5.2,9.2,85,0.00,CLR,OVC,0.00,WeatherDisplay:10.37,2013-03-12 04:57:00,
2013-03-12 01:02:00,68.4,64.0,29.93,South,182,8.8,12.7,86,0.00,CLR,OVC,0.00,WeatherDisplay:10.37,2013-03-12 05:02:00,
2013-03-12 01:07:00,68.3,63.9,29.93,SSE,152,7.1,11.5,86,0.00,CLR,OVC,0.00,WeatherDisplay:10.37,2013-03-12 05:07:00,
2013-03-12 01:12:00,68.3,63.9,29.91,SSW,198,11.0,13.8,86,0.00,CLR,OVC,0.00,WeatherDisplay:10.37,2013-03-12 05:12:00,
2013-03-12 01:17:00,68.3,63.9,29.91,SSE,164,12.0,15.0,86,0.00,CLR,OVC,0.00,WeatherDisplay:10.37,2013-03-12 05:17:00,
2013-03-12 01:22:00,68.4,64.0,29.91,SE,145,12.4,15.0,86,0.00,CLR,OVC,0.00,WeatherDisplay:10.37,2013-03-12 05:22:00,
2013-03-12 01:27:00,68.2,63.9,29.91,South,171,9.6,11.5,86,0.00,CLR,OVC,0.00,WeatherDisplay:10.37,2013-03-12 05:27:00,
2013-03-12 01:32:00,68.2,63.9,29.91,South,172,11.6,16.1,86,0.00,CLR,OVC,0.00,WeatherDisplay:10.37,2013-03-12 05:32:00,
2013-03-12 01:37:00,68.2,64.2,29.91,SSW,195,9.2,15.0,87,0.00,CLR,OVC,0.00,WeatherDisplay:10.37,2013-03-12 05:37:00,
2013-03-12 01:42:00,68.3,64.3,29.92,SSE,164,12.3,12.3,87,0.00,CLR,OVC,0.00,WeatherDisplay:10.37,2013-03-12 05:42:00,
2013-03-12 01:47:00,68.2,63.9,29.92,SSE,167,8.9,16.1,86,0.00,CLR,OVC,0.00,WeatherDisplay:10.37,2013-03-12 05:47:00,
2013-03-12 01:52:00,68.3,63.9,29.92,South,169,11.1,16.1,86,0.00,CLR,OVC,0.00,WeatherDisplay:10.37,2013-03-12 05:52:00,
2013-03-12 01:57:00,68.4,64.0,29.92,SSE,161,10.5,11.5,86,0.00,CLR,OVC,0.00,WeatherDisplay:10.37,2013-03-12 05:57:00,
2013-03-12 02:02:00,68.4,64.0,29.91,SSE,160,11.6,15.0,86,0.00,CLR,OVC,0.00,WeatherDisplay:10.37,2013-03-12 06:02:00,
2013-03-12 02:07:00,68.5,64.1,29.91,SSW,193,14.0,20.7,86,0.00,CLR,OVC,0.00,WeatherDisplay:10.37,2013-03-12 06:07:00,
2013-03-12 02:12:00,68.4,64.0,29.91,SSE,148,14.1,21.9,86,0.00,CLR,OVC,0.00,WeatherDisplay:10.37,2013-03-12 06:12:00,
2013-03-12 02:17:00,68.5,64.1,29.91,South,191,10.4,20.7,86,0.00,CLR,OVC,0.00,WeatherDisplay:10.37,2013-03-12 06:17:00,
2013-03-12 02:23:00,68.4,64.0,29.91,SSW,205,11.1,15.2,86,0.00,CLR,OVC,0.00,WeatherDisplay:10.37,2013-03-12 06:23:00,
2013-03-12 02:28:00,68.6,64.2,29.91,South,175,11.0,19.5,86,0.00,CLR,OVC,0.00,WeatherDisplay:10.37,2013-03-12 06:28:00,
2013-03-12 02:33:00,68.7,64.3,29.91,South,186,15.9,23.0,86,0.00,CLR,OVC,0.00,WeatherDisplay:10.37,2013-03-12 06:33:00,
2013-03-12 02:38:00,68.8,64.4,29.91,South,185,11.7,15.0,86,0.00,CLR,OVC,0.00,WeatherDisplay:10.37,2013-03-12 06:38:00,
2013-03-12 02:43:00,68.9,64.9,29.91,South,171,11.2,18.4,87,0.00,CLR,OVC,0.00,WeatherDisplay:10.37,2013-03-12 06:43:00,
2013-03-12 02:48:00,69.0,65.0,29.90,SSE,161,11.4,15.0,87,0.00,CLR,OVC,0.00,WeatherDisplay:10.37,2013-03-12 06:48:00,
2013-03-12 02:53:00,68.9,64.9,29.89,South,182,12.5,16.1,87,0.00,CLR,OVC,0.00,WeatherDisplay:10.37,2013-03-12 06:53:00,
2013-03-12 02:58:00,68.7,64.7,29.89,SSE,168,16.1,25.3,87,0.00,CLR,OVC,0.00,WeatherDisplay:10.37,2013-03-12 06:58:00,
2013-03-12 03:03:00,68.7,64.7,29.89,South,179,13.8,20.7,87,0.00,CLR,OVC,0.00,WeatherDisplay:10.37,2013-03-12 07:03:00,
2013-03-12 03:08:00,68.8,64.8,29.89,SSE,151,13.8,19.6,87,0.00,CLR,OVC,0.00,WeatherDisplay:10.37,2013-03-12 07:08:00,
2013-03-12 03:13:00,69.0,65.0,29.89,SSE,161,10.4,15.0,87,0.00,CLR,OVC,0.00,WeatherDisplay:10.37,2013-03-12 07:13:00,
2013-03-12 03:18:00,68.9,64.9,29.88,SSE,165,14.2,24.2,87,0.00,CLR,OVC,0.00,WeatherDisplay:10.37,2013-03-12 07:18:00,
2013-03-12 03:23:00,68.9,64.5,29.88,SSE,162,14.1,20.7,86,0.00,CLR,OVC,0.00,WeatherDisplay:10.37,2013-03-12 07:23:00,
2013-03-12 03:28:00,68.8,64.4,29.88,SSE,155,11.8,12.7,86,0.00,CLR,OVC,0.00,WeatherDisplay:10.37,2013-03-12 07:28:00,
2013-03-12 03:33:00,69.1,64.7,29.88,South,179,14.6,18.4,86,0.00,CLR,OVC,0.00,WeatherDisplay:10.37,2013-03-12 07:33:00,
2013-03-12 03:38:00,69.1,64.7,29.88,South,178,14.2,20.7,86,0.00,CLR,OVC,0.00,WeatherDisplay:10.37,2013-03-12 07:38:00,
2013-03-12 03:43:00,69.2,64.8,29.88,South,189,13.6,18.4,86,0.00,CLR,OVC,0.00,WeatherDisplay:10.37,2013-03-12 07:43:00,
2013-03-12 03:48:00,69.1,64.7,29.88,South,169,14.4,18.2,86,0.00,CLR,OVC,0.00,WeatherDisplay:10.37,2013-03-12 07:48:00,
2013-03-12 03:53:00,69.3,64.9,29.88,South,186,14.0,18.4,86,0.00,CLR,OVC,0.00,WeatherDisplay:10.37,2013-03-12 07:53:00,
2013-03-12 03:58:00,69.2,64.8,29.88,South,178,13.5,18.4,86,0.00,CLR,OVC,0.00,WeatherDisplay:10.37,2013-03-12 07:58:00,
2013-03-12 04:03:00,69.3,64.9,29.88,South,181,13.8,16.1,86,0.00,CLR,OVC,0.00,WeatherDisplay:10.37,2013-03-12 08:03:00,
2013-03-12 04:08:00,69.4,64.7,29.87,South,178,12.4,23.1,85,0.00,CLR,OVC,0.00,WeatherDisplay:10.37,2013-03-12 08:08:00,
2013-03-12 04:13:00,69.4,65.0,29.87,SSW,193,11.9,20.2,86,0.00,CLR,OVC,0.00,WeatherDisplay:10.37,2013-03-12 08:13:00,
2013-03-12 04:18:00,69.3,65.3,29.87,South,174,13.9,18.4,87,0.00,CLR,OVC,0.00,WeatherDisplay:10.37,2013-03-12 08:18:00,
2013-03-12 04:23:00,69.0,65.3,29.87,South,178,14.6,20.7,88,0.00,CLR,OVC,0.01,WeatherDisplay:10.37,2013-03-12 08:23:00,
2013-03-12 04:28:00,68.7,65.3,29.87,SE,145,15.3,20.7,89,0.01,RA,OVC,0.01,WeatherDisplay:10.37,2013-03-12 08:28:00,
2013-03-12 04:33:00,68.6,65.2,29.87,South,184,11.4,16.1,89,0.01,RA,OVC,0.01,WeatherDisplay:10.37,2013-03-12 08:33:00,
2013-03-12 04:38:00,68.5,65.4,29.87,SSE,167,12.1,15.0,90,0.01,CLR,OVC,0.01,WeatherDisplay:10.37,2013-03-12 08:38:00,
2013-03-12 04:43:00,68.4,65.4,29.87,SSE,154,10.2,16.1,90,0.01,CLR,OVC,0.01,WeatherDisplay:10.37,2013-03-12 08:43:00,
2013-03-12 04:48:00,68.4,65.4,29.87,SSE,164,13.2,18.4,90,0.01,CLR,OVC,0.01,WeatherDisplay:10.37,2013-03-12 08:48:00,
2013-03-12 04:53:00,68.5,65.4,29.87,South,184,11.5,17.3,90,0.01,CLR,OVC,0.01,WeatherDisplay:10.37,2013-03-12 08:53:00,
2013-03-12 04:58:00,68.6,65.2,29.87,SSE,164,13.5,20.7,89,0.01,CLR,OVC,0.01,WeatherDisplay:10.37,2013-03-12 08:58:00,
2013-03-12 05:03:00,68.6,65.2,29.87,South,191,14.6,19.6,89,0.01,CLR,OVC,0.01,WeatherDisplay:10.37,2013-03-12 09:03:00,
2013-03-12 05:08:00,68.5,65.4,29.87,South,179,14.8,18.7,90,0.01,CLR,OVC,0.01,WeatherDisplay:10.37,2013-03-12 09:08:00,
2013-03-12 05:13:00,68.4,65.4,29.87,South,169,15.1,18.4,90,0.01,CLR,OVC,0.01,WeatherDisplay:10.37,2013-03-12 09:13:00,
2013-03-12 05:18:00,68.4,65.7,29.87,SSE,164,15.7,19.6,91,0.02,RA,OVC,0.02,WeatherDisplay:10.37,2013-03-12 09:18:00,
2013-03-12 05:23:00,68.4,65.7,29.88,South,178,15.0,21.9,91,0.02,RA,OVC,0.02,WeatherDisplay:10.37,2013-03-12 09:23:00,
2013-03-12 05:28:00,68.2,65.8,29.88,South,188,15.1,26.5,92,0.01,CLR,OVC,0.02,WeatherDisplay:10.37,2013-03-12 09:28:00,
2013-03-12 05:33:00,68.1,66.0,29.88,South,184,17.8,24.2,93,0.02,RA,OVC,0.03,WeatherDisplay:10.37,2013-03-12 09:33:00,
2013-03-12 05:38:00,67.9,65.8,29.88,SW,223,12.2,20.7,93,0.02,RA,OVC,0.03,WeatherDisplay:10.37,2013-03-12 09:38:00,
2013-03-12 05:43:00,67.9,66.1,29.87,SSE,167,18.6,23.0,94,0.02,,OVC,0.03,WeatherDisplay:10.37,2013-03-12 09:43:00,
2013-03-12 05:48:00,67.9,66.1,29.87,SSE,150,10.1,13.8,94,0.02,CLR,OVC,0.03,WeatherDisplay:10.37,2013-03-12 09:48:00,
2013-03-12 05:53:00,67.9,66.1,29.87,South,185,9.9,15.0,94,0.02,CLR,OVC,0.03,WeatherDisplay:10.37,2013-03-12 09:53:00,
2013-03-12 05:58:00,67.9,66.1,29.88,South,175,15.3,21.9,94,0.02,CLR,OVC,0.03,WeatherDisplay:10.37,2013-03-12 09:58:00,
2013-03-12 06:03:00,67.9,66.4,29.88,SSE,168,14.9,18.4,95,0.02,CLR,OVC,0.03,WeatherDisplay:10.37,2013-03-12 10:03:00,
2013-03-12 06:08:00,68.0,66.2,29.88,South,175,12.7,18.4,94,0.02,CLR,OVC,0.03,WeatherDisplay:10.37,2013-03-12 10:08:00,
2013-03-12 06:13:00,68.1,66.3,29.88,SSW,199,16.3,20.7,94,0.02,CLR,OVC,0.03,WeatherDisplay:10.37,2013-03-12 10:13:00,
2013-03-12 06:18:00,68.0,66.2,29.88,SSW,199,17.1,20.7,94,0.02,RA,OVC,0.04,WeatherDisplay:10.37,2013-03-12 10:18:00,
2013-03-12 06:23:00,68.2,66.4,29.88,South,181,13.9,19.6,94,0.02,RA,OVC,0.04,WeatherDisplay:10.37,2013-03-12 10:23:00,
2013-03-12 06:28:00,68.1,66.3,29.89,SE,128,12.0,17.3,94,0.02,,OVC,0.04,WeatherDisplay:10.37,2013-03-12 10:28:00,
2013-03-12 06:33:00,68.2,66.4,29.89,South,184,12.1,20.8,94,0.01,CLR,OVC,0.04,WeatherDisplay:10.37,2013-03-12 10:33:00,
2013-03-12 06:38:00,68.2,66.4,29.89,SSW,196,10.4,12.7,94,0.01,CLR,OVC,0.04,WeatherDisplay:10.37,2013-03-12 10:38:00,
2013-03-12 06:43:00,68.5,66.4,29.90,South,182,11.1,15.0,93,0.01,CLR,OVC,0.04,WeatherDisplay:10.37,2013-03-12 10:43:00,
2013-03-12 06:48:00,68.4,66.6,29.90,SSW,203,12.0,17.3,94,0.02,RA,OVC,0.05,WeatherDisplay:10.37,2013-03-12 10:48:00,
2013-03-12 06:53:00,68.4,66.6,29.90,South,175,10.3,18.4,94,0.03,RA,OVC,0.06,WeatherDisplay:10.37,2013-03-12 10:53:00,
2013-03-12 06:58:00,68.2,66.7,29.91,South,171,11.0,15.0,95,0.04,RA,OVC,0.07,WeatherDisplay:10.37,2013-03-12 10:58:00,
2013-03-12 07:03:00,68.3,66.8,29.90,South,185,11.7,13.8,95,0.05,RA,OVC,0.08,WeatherDisplay:10.37,2013-03-12 11:03:00,
2013-03-12 07:08:00,68.1,66.6,29.90,SW,220,10.6,16.1,95,0.06,RA,OVC,0.09,WeatherDisplay:10.37,2013-03-12 11:08:00,
2013-03-12 07:13:00,68.2,67.0,29.90,South,172,11.4,16.1,96,0.06,RA,OVC,0.09,WeatherDisplay:10.37,2013-03-12 11:13:00,
2013-03-12 07:18:00,68.1,66.9,29.90,SSE,161,13.8,21.9,96,0.06,RA,OVC,0.10,WeatherDisplay:10.37,2013-03-12 11:18:00,
2013-03-12 07:23:00,68.0,66.8,29.90,SSE,154,12.9,17.3,96,0.08,RA,OVC,0.13,WeatherDisplay:10.37,2013-03-12 11:23:00,
2013-03-12 07:28:00,67.9,66.7,29.90,SSE,164,11.3,13.8,96,0.11,RA,OVC,0.16,WeatherDisplay:10.37,2013-03-12 11:28:00,
2013-03-12 07:33:00,67.9,66.7,29.90,South,189,13.8,19.6,96,0.13,RA,OVC,0.17,WeatherDisplay:10.37,2013-03-12 11:33:00,
2013-03-12 07:38:00,67.9,66.7,29.90,South,191,14.1,15.0,96,0.13,RA,OVC,0.17,WeatherDisplay:10.37,2013-03-12 11:38:00,
2013-03-12 07:43:00,67.9,66.7,29.90,SSE,167,8.8,13.8,96,0.14,RA,OVC,0.18,WeatherDisplay:10.37,2013-03-12 11:43:00,
2013-03-12 07:48:00,67.9,66.7,29.90,SSW,203,10.7,16.1,96,0.13,RA,OVC,0.18,WeatherDisplay:10.37,2013-03-12 11:48:00,
2013-03-12 07:53:00,67.7,66.8,29.90,South,178,14.5,19.6,97,0.12,CLR,OVC,0.18,WeatherDisplay:10.37,2013-03-12 11:53:00,
2013-03-12 07:58:00,67.7,66.8,29.91,South,176,10.6,11.5,97,0.12,RA,OVC,0.19,WeatherDisplay:10.37,2013-03-12 11:58:00,
2013-03-12 08:03:00,67.8,66.9,29.91,South,174,13.6,17.3,97,0.12,RA,OVC,0.20,WeatherDisplay:10.37,2013-03-12 12:03:00,
2013-03-12 08:08:00,67.8,66.9,29.91,South,181,12.2,18.4,97,0.15,RA,OVC,0.25,WeatherDisplay:10.37,2013-03-12 12:08:00,
2013-03-12 08:13:00,67.8,66.9,29.91,SSE,164,7.6,19.6,97,0.17,RA,OVC,0.27,WeatherDisplay:10.37,2013-03-12 12:13:00,
2013-03-12 08:18:00,67.9,67.0,29.91,SSW,199,14.7,20.7,97,0.17,RA,OVC,0.27,WeatherDisplay:10.37,2013-03-12 12:18:00,
2013-03-12 08:23:00,67.8,67.2,29.91,SW,219,11.4,16.1,98,0.16,RA,OVC,0.28,WeatherDisplay:10.37,2013-03-12 12:23:00,
2013-03-12 08:28:00,67.7,67.1,29.91,South,191,11.7,15.0,98,0.13,RA,OVC,0.28,WeatherDisplay:10.37,2013-03-12 12:28:00,
2013-03-12 08:34:00,67.8,67.2,29.91,South,186,14.5,20.7,98,0.11,,OVC,0.28,WeatherDisplay:10.37,2013-03-12 12:34:00,
2013-03-12 08:39:00,67.9,67.3,29.92,South,175,13.8,18.4,98,0.11,CLR,OVC,0.28,WeatherDisplay:10.37,2013-03-12 12:39:00,
2013-03-12 08:44:00,68.0,67.4,29.92,South,184,11.7,18.4,98,0.10,CLR,OVC,0.28,WeatherDisplay:10.37,2013-03-12 12:44:00,
2013-03-12 08:49:00,68.0,67.4,29.92,South,191,9.6,12.7,98,0.10,CLR,OVC,0.28,WeatherDisplay:10.37,2013-03-12 12:49:00,
2013-03-12 08:54:00,68.1,67.5,29.92,South,181,10.0,13.7,98,0.10,CLR,OVC,0.28,WeatherDisplay:10.37,2013-03-12 12:54:00,
2013-03-12 08:59:00,68.3,67.7,29.93,SSW,210,7.8,15.4,98,0.09,CLR,OVC,0.28,WeatherDisplay:10.37,2013-03-12 12:59:00,
2013-03-12 09:04:00,68.1,67.5,29.93,SSW,193,11.2,17.3,98,0.08,CLR,OVC,0.28,WeatherDisplay:10.37,2013-03-12 13:04:00,
2013-03-12 09:09:00,68.4,67.8,29.93,SSW,195,12.0,15.0,98,0.03,CLR,OVC,0.28,WeatherDisplay:10.37,2013-03-12 13:09:00,
2013-03-12 09:14:00,68.4,67.8,29.93,South,176,9.0,16.9,98,0.01,CLR,OVC,0.28,WeatherDisplay:10.37,2013-03-12 13:14:00,
2013-03-12 09:19:00,68.3,67.7,29.92,South,176,13.0,21.9,98,0.01,CLR,OVC,0.28,WeatherDisplay:10.37,2013-03-12 13:19:00,
2013-03-12 09:24:00,68.2,67.6,29.93,SSE,158,13.1,18.4,98,0.00,CLR,OVC,0.28,WeatherDisplay:10.37,2013-03-12 13:24:00,
2013-03-12 09:29:00,68.0,67.4,29.93,SSW,199,15.2,20.7,98,0.00,CLR,OVC,0.28,WeatherDisplay:10.37,2013-03-12 13:29:00,
2013-03-12 09:34:00,68.1,67.5,29.93,South,174,12.1,16.1,98,0.00,CLR,OVC,0.28,WeatherDisplay:10.37,2013-03-12 13:34:00,
2013-03-12 09:39:00,68.2,67.6,29.93,SW,227,11.2,17.3,98,0.00,CLR,OVC,0.28,WeatherDisplay:10.37,2013-03-12 13:39:00,
2013-03-12 09:44:00,68.0,67.4,29.93,SSW,203,6.5,12.7,98,0.00,CLR,OVC,0.28,WeatherDisplay:10.37,2013-03-12 13:44:00,
2013-03-12 09:49:00,67.8,67.2,29.94,WNW,284,3.8,9.2,98,0.00,CLR,OVC,0.28,WeatherDisplay:10.37,2013-03-12 13:49:00,
2013-03-12 09:54:00,66.2,65.0,29.94,WNW,301,6.6,10.4,96,0.00,CLR,OVC,0.28,WeatherDisplay:10.37,2013-03-12 13:54:00,
2013-03-12 10:00:00,65.1,63.9,29.95,WNW,301,7.2,13.8,96,0.00,CLR,OVC,0.28,WeatherDisplay:10.37,2013-03-12 14:00:00,
2013-03-12 10:05:00,64.9,63.7,29.95,West,265,3.0,7.5,96,0.00,CLR,OVC,0.28,WeatherDisplay:10.37,2013-03-12 14:05:00,
2013-03-12 10:10:00,64.8,63.6,29.95,NW,326,7.8,13.8,96,0.00,CLR,OVC,0.28,WeatherDisplay:10.37,2013-03-12 14:10:00,
2013-03-12 10:15:00,64.2,63.0,29.96,WSW,241,8.7,12.7,96,0.00,CLR,OVC,0.28,WeatherDisplay:10.37,2013-03-12 14:15:00,
2013-03-12 10:20:00,64.1,62.9,29.96,NW,319,6.4,13.8,96,0.00,CLR,OVC,0.28,WeatherDisplay:10.37,2013-03-12 14:20:00,
2013-03-12 10:25:00,63.7,62.5,29.96,North,1,4.5,9.2,96,0.00,CLR,OVC,0.28,WeatherDisplay:10.37,2013-03-12 14:25:00,
2013-03-12 10:30:00,63.9,62.7,29.96,NNW,343,6.0,9.2,96,0.00,CLR,OVC,0.28,WeatherDisplay:10.37,2013-03-12 14:30:00,
2013-03-12 10:35:00,64.0,62.8,29.97,NNE,28,5.7,9.2,96,0.00,CLR,OVC,0.28,WeatherDisplay:10.37,2013-03-12 14:35:00,
2013-03-12 10:40:00,64.0,62.8,29.97,NW,313,8.3,12.7,96,0.00,CLR,OVC,0.28,WeatherDisplay:10.37,2013-03-12 14:40:00,
2013-03-12 10:45:00,63.9,62.7,29.97,NW,306,6.0,10.4,96,0.00,CLR,OVC,0.28,WeatherDisplay:10.37,2013-03-12 14:45:00,
2013-03-12 10:50:00,63.9,62.7,29.98,WNW,301,5.1,9.2,96,0.00,CLR,OVC,0.28,WeatherDisplay:10.37,2013-03-12 14:50:00,
2013-03-12 10:55:00,64.1,62.9,29.98,NW,306,6.6,9.2,96,0.00,CLR,OVC,0.28,WeatherDisplay:10.37,2013-03-12 14:55:00,
2013-03-12 11:00:00,63.9,62.7,29.98,NW,318,7.1,11.5,96,0.01,RA,OVC,0.29,WeatherDisplay:10.37,2013-03-12 15:00:00,
2013-03-12 11:05:00,64.0,62.8,29.99,NW,305,6.1,15.0,96,0.01,RA,OVC,0.29,WeatherDisplay:10.37,2013-03-12 15:05:00,
2013-03-12 11:10:00,64.0,62.8,29.99,NW,306,6.4,11.5,96,0.01,CLR,OVC,0.29,WeatherDisplay:10.37,2013-03-12 15:10:00,
2013-03-12 11:15:00,64.0,62.8,29.99,NNW,337,6.7,12.7,96,0.01,CLR,OVC,0.29,WeatherDisplay:10.37,2013-03-12 15:15:00,
2013-03-12 11:20:00,63.9,62.7,29.99,NNW,342,5.4,11.5,96,0.01,CLR,OVC,0.29,WeatherDisplay:10.37,2013-03-12 15:20:00,
2013-03-12 11:25:00,63.7,62.5,29.99,NNW,330,4.7,10.4,96,0.01,CLR,OVC,0.29,WeatherDisplay:10.37,2013-03-12 15:25:00,
2013-03-12 11:30:00,63.9,62.7,29.99,NW,306,5.2,6.9,96,0.01,CLR,OVC,0.29,WeatherDisplay:10.37,2013-03-12 15:30:00,
2013-03-12 11:35:00,64.0,62.8,29.99,NW,319,4.8,8.1,96,0.01,CLR,OVC,0.29,WeatherDisplay:10.37,2013-03-12 15:35:00,
2013-03-12 11:40:00,64.1,62.9,29.99,NW,305,5.5,11.5,96,0.02,RA,OVC,0.30,WeatherDisplay:10.37,2013-03-12 15:40:00,
2013-03-12 11:45:00,64.2,63.0,29.99,WNW,302,5.2,10.4,96,0.02,RA,OVC,0.30,WeatherDisplay:10.37,2013-03-12 15:45:00,
2013-03-12 11:50:00,64.7,63.5,29.99,NNW,336,7.4,8.1,96,0.02,CLR,OVC,0.30,WeatherDisplay:10.37,2013-03-12 15:50:00,
2013-03-12 11:55:00,64.8,63.6,30.00,NW,318,7.4,9.2,96,0.02,CLR,OVC,0.30,WeatherDisplay:10.37,2013-03-12 15:55:00,
2013-03-12 12:00:00,64.9,63.4,30.00,WNW,301,5.1,10.4,95,0.01,CLR,OVC,0.30,WeatherDisplay:10.37,2013-03-12 16:00:00,
2013-03-12 12:05:00,65.0,63.5,30.00,NW,316,5.8,10.4,95,0.01,CLR,OVC,0.30,WeatherDisplay:10.37,2013-03-12 16:05:00,
2013-03-12 12:10:00,65.0,63.5,30.00,NW,320,6.2,13.8,95,0.01,CLR,OVC,0.30,WeatherDisplay:10.37,2013-03-12 16:10:00,
2013-03-12 12:15:00,65.0,63.5,30.00,NW,320,6.7,12.7,95,0.01,CLR,OVC,0.30,WeatherDisplay:10.37,2013-03-12 16:15:00,
2013-03-12 12:20:00,64.9,63.1,30.00,WNW,289,6.9,15.0,94,0.01,CLR,OVC,0.30,WeatherDisplay:10.37,2013-03-12 16:20:00,
2013-03-12 12:25:00,64.8,62.7,30.00,North,11,6.1,12.7,93,0.01,CLR,OVC,0.30,WeatherDisplay:10.37,2013-03-12 16:25:00,
2013-03-12 12:30:00,65.0,62.9,30.00,NW,313,7.5,13.8,93,0.01,CLR,OVC,0.30,WeatherDisplay:10.37,2013-03-12 16:30:00,
2013-03-12 12:35:00,65.0,62.6,30.00,North,360,7.0,13.8,92,0.01,CLR,OVC,0.30,WeatherDisplay:10.37,2013-03-12 16:35:00,
2013-03-12 12:40:00,65.0,62.6,30.00,North,354,5.5,8.1,92,0.00,CLR,OVC,0.30,WeatherDisplay:10.37,2013-03-12 16:40:00,
2013-03-12 12:45:00,65.2,62.5,30.00,NNW,347,10.1,12.7,91,0.00,CLR,OVC,0.30,WeatherDisplay:10.37,2013-03-12 16:45:00,
2013-03-12 12:50:00,65.0,62.3,30.00,NW,313,9.8,15.0,91,0.00,CLR,OVC,0.30,WeatherDisplay:10.37,2013-03-12 16:50:00,
2013-03-12 12:55:00,65.0,62.3,30.00,NW,325,9.2,12.7,91,0.00,CLR,OVC,0.30,WeatherDisplay:10.37,2013-03-12 16:55:00,
2013-03-12 13:00:00,64.8,61.8,30.00,NW,308,5.8,11.5,90,0.00,CLR,OVC,0.30,WeatherDisplay:10.37,2013-03-12 17:00:00,
2013-03-12 13:05:00,64.9,61.9,30.00,NW,325,6.2,12.7,90,0.00,CLR,OVC,0.30,WeatherDisplay:10.37,2013-03-12 17:05:00,
2013-03-12 13:10:00,65.0,61.7,30.00,NNW,336,6.1,15.0,89,0.00,CLR,OVC,0.30,WeatherDisplay:10.37,2013-03-12 17:10:00,
2013-03-12 13:15:00,65.1,61.8,30.00,WNW,301,7.3,11.5,89,0.00,CLR,OVC,0.30,WeatherDisplay:10.37,2013-03-12 17:15:00,
2013-03-12 13:20:00,65.0,61.4,30.00,WNW,289,7.3,12.7,88,0.00,CLR,OVC,0.30,WeatherDisplay:10.37,2013-03-12 17:20:00,
2013-03-12 13:25:00,64.7,61.1,30.00,NW,312,9.5,15.8,88,0.00,CLR,OVC,0.30,WeatherDisplay:10.37,2013-03-12 17:25:00,
2013-03-12 13:30:00,64.7,60.7,30.00,NW,308,6.4,10.4,87,0.00,CLR,OVC,0.30,WeatherDisplay:10.37,2013-03-12 17:30:00,
2013-03-12 13:35:00,64.9,60.6,30.00,NNW,337,9.4,17.3,86,0.00,CLR,OVC,0.30,WeatherDisplay:10.37,2013-03-12 17:35:00,
2013-03-12 13:40:00,65.2,60.6,30.00,North,4,5.0,12.7,85,0.00,CLR,OVC,0.30,WeatherDisplay:10.37,2013-03-12 17:40:00,
2013-03-12 13:45:00,65.6,61.0,30.00,WNW,294,6.5,10.4,85,0.00,CLR,OVC,0.30,WeatherDisplay:10.37,2013-03-12 17:45:00,
2013-03-12 13:50:00,65.7,60.4,29.99,NW,315,6.1,10.4,83,0.00,CLR,OVC,0.30,WeatherDisplay:10.37,2013-03-12 17:50:00,
2013-03-12 13:55:00,65.4,59.1,29.99,NNW,332,7.0,11.5,80,0.00,CLR,OVC,0.30,WeatherDisplay:10.37,2013-03-12 17:55:00,
2013-03-12 14:01:00,65.4,59.4,29.99,NW,313,5.9,11.5,81,0.00,CLR,OVC,0.30,WeatherDisplay:10.37,2013-03-12 18:01:00,
2013-03-12 14:06:00,65.9,59.2,29.99,WNW,301,3.9,13.8,79,0.00,CLR,OVC,0.30,WeatherDisplay:10.37,2013-03-12 18:06:00,
2013-03-12 14:11:00,65.6,58.9,29.99,WNW,301,7.6,11.5,79,0.00,CLR,OVC,0.30,WeatherDisplay:10.37,2013-03-12 18:11:00,
2013-03-12 14:16:00,66.0,59.7,29.99,NNW,328,5.7,9.2,80,0.00,CLR,OVC,0.30,WeatherDisplay:10.37,2013-03-12 18:16:00,
2013-03-12 14:21:00,66.2,59.1,29.99,NW,322,7.7,13.8,78,0.00,CLR,OVC,0.30,WeatherDisplay:10.37,2013-03-12 18:21:00,
2013-03-12 14:26:00,66.1,58.7,29.99,NW,322,7.0,7.8,77,0.00,CLR,OVC,0.30,WeatherDisplay:10.37,2013-03-12 18:26:00,
2013-03-12 14:31:00,66.5,58.7,29.99,NNW,340,6.3,11.5,76,0.00,CLR,OVC,0.30,WeatherDisplay:10.37,2013-03-12 18:31:00,
2013-03-12 14:36:00,67.1,58.5,29.99,WNW,301,6.5,11.5,74,0.00,CLR,OVC,0.30,WeatherDisplay:10.37,2013-03-12 18:36:00,
2013-03-12 14:41:00,67.4,59.6,29.99,NW,309,7.3,10.4,76,0.00,CLR,OVC,0.30,WeatherDisplay:10.37,2013-03-12 18:41:00,
2013-03-12 14:46:00,67.1,58.2,29.99,WNW,289,8.6,15.0,73,0.00,CLR,OVC,0.30,WeatherDisplay:10.37,2013-03-12 18:46:00,
2013-03-12 14:51:00,66.7,58.9,29.99,North,3,8.2,13.8,76,0.00,CLR,OVC,0.30,WeatherDisplay:10.37,2013-03-12 18:51:00,
2013-03-12 14:56:00,67.1,58.9,29.99,NNW,328,7.2,10.4,75,0.00,CLR,OVC,0.30,WeatherDisplay:10.37,2013-03-12 18:56:00,
2013-03-12 15:01:00,67.0,58.8,29.99,NW,316,9.0,13.8,75,0.00,CLR,OVC,0.30,WeatherDisplay:10.37,2013-03-12 19:01:00,
2013-03-12 15:06:00,67.1,58.5,29.99,NW,319,8.4,11.5,74,0.00,CLR,OVC,0.30,WeatherDisplay:10.37,2013-03-12 19:06:00,
2013-03-12 15:11:00,66.3,57.8,29.99,WNW,284,7.1,10.4,74,0.00,CLR,OVC,0.30,WeatherDisplay:10.37,2013-03-12 19:11:00,
2013-03-12 15:16:00,67.3,58.7,29.99,NNE,25,5.5,11.5,74,0.00,CLR,OVC,0.30,WeatherDisplay:10.37,2013-03-12 19:16:00,
2013-03-12 15:21:00,67.1,57.4,29.99,NW,313,7.7,8.9,71,0.00,CLR,OVC,0.30,WeatherDisplay:10.37,2013-03-12 19:21:00,
2013-03-12 15:26:00,66.6,57.7,29.99,NW,315,6.0,10.4,73,0.00,CLR,OVC,0.30,WeatherDisplay:10.37,2013-03-12 19:26:00,
2013-03-12 15:31:00,67.4,58.8,29.99,North,349,7.5,11.5,74,0.00,CLR,OVC,0.30,WeatherDisplay:10.37,2013-03-12 19:31:00,
2013-03-12 15:36:00,67.0,57.7,29.99,NNW,336,4.8,8.1,72,0.00,CLR,OVC,0.30,WeatherDisplay:10.37,2013-03-12 19:36:00,
2013-03-12 15:41:00,67.8,58.4,29.98,WNW,302,8.1,12.7,72,0.00,CLR,OVC,0.30,WeatherDisplay:10.37,2013-03-12 19:41:00,
2013-03-12 15:46:00,67.0,58.1,29.98,NW,308,5.7,11.5,73,0.00,CLR,OVC,0.30,WeatherDisplay:10.37,2013-03-12 19:46:00,
2013-03-12 15:51:00,67.8,58.4,29.98,WNW,299,5.2,11.5,72,0.00,CLR,OVC,0.30,WeatherDisplay:10.37,2013-03-12 19:51:00,
2013-03-12 15:56:00,68.0,57.8,29.98,West,272,7.0,9.2,70,0.00,CLR,OVC,0.30,WeatherDisplay:10.37,2013-03-12 19:56:00,
2013-03-12 16:01:00,67.3,58.0,29.99,West,277,7.8,13.6,72,0.00,CLR,OVC,0.30,WeatherDisplay:10.37,2013-03-12 20:01:00,
2013-03-12 16:06:00,66.7,57.8,29.99,WNW,282,6.1,9.2,73,0.00,CLR,OVC,0.30,WeatherDisplay:10.37,2013-03-12 20:06:00,
2013-03-12 16:11:00,67.8,58.1,29.99,NNW,333,5.8,12.7,71,0.00,CLR,OVC,0.30,WeatherDisplay:10.37,2013-03-12 20:11:00,
2013-03-12 16:16:00,67.4,56.9,29.99,WNW,284,6.0,10.5,69,0.00,CLR,OVC,0.30,WeatherDisplay:10.37,2013-03-12 20:16:00,
2013-03-12 16:21:00,67.2,57.1,29.99,West,267,5.0,9.2,70,0.00,CLR,OVC,0.30,WeatherDisplay:10.37,2013-03-12 20:21:00,
2013-03-12 16:26:00,65.8,56.9,29.99,NW,316,8.3,13.8,73,0.00,CLR,OVC,0.30,WeatherDisplay:10.37,2013-03-12 20:26:00,
2013-03-12 16:31:00,66.9,57.2,29.99,NW,319,6.9,11.5,71,0.00,CLR,OVC,0.30,WeatherDisplay:10.37,2013-03-12 20:31:00,
2013-03-12 16:36:00,67.3,56.4,29.99,NW,311,7.2,13.8,68,0.00,CLR,OVC,0.30,WeatherDisplay:10.37,2013-03-12 20:36:00,
2013-03-12 16:41:00,67.1,56.6,29.98,NW,319,6.4,11.5,69,0.00,CLR,OVC,0.30,WeatherDisplay:10.37,2013-03-12 20:41:00,
2013-03-12 16:46:00,67.1,56.6,29.98,NW,313,8.5,13.8,69,0.00,CLR,OVC,0.30,WeatherDisplay:10.37,2013-03-12 20:46:00,
2013-03-12 16:51:00,67.3,57.2,29.98,NW,325,7.8,9.2,70,0.00,CLR,OVC,0.30,WeatherDisplay:10.37,2013-03-12 20:51:00,
2013-03-12 16:56:00,67.4,57.3,29.98,WNW,299,7.6,13.8,70,0.00,CLR,OVC,0.30,WeatherDisplay:10.37,2013-03-12 20:56:00,
2013-03-12 17:01:00,66.9,56.8,29.99,NW,312,5.8,15.0,70,0.00,CLR,OVC,0.30,WeatherDisplay:10.37,2013-03-12 21:01:00,
2013-03-12 17:06:00,67.9,57.4,29.98,NW,323,7.1,10.4,69,0.00,CLR,OVC,0.30,WeatherDisplay:10.37,2013-03-12 21:06:00,
2013-03-12 17:11:00,68.1,56.3,29.98,NW,316,8.8,12.7,66,0.00,CLR,OVC,0.30,WeatherDisplay:10.37,2013-03-12 21:11:00,
2013-03-12 17:16:00,67.5,55.7,29.99,NW,313,5.9,10.4,66,0.00,CLR,OVC,0.30,WeatherDisplay:10.37,2013-03-12 21:16:00,
2013-03-12 17:21:00,67.2,56.3,29.98,NNW,335,8.2,11.5,68,0.00,CLR,OVC,0.30,WeatherDisplay:10.37,2013-03-12 21:21:00,
2013-03-12 17:26:00,66.8,55.9,29.99,NW,323,5.9,13.8,68,0.00,CLR,OVC,0.30,WeatherDisplay:10.37,2013-03-12 21:26:00,
2013-03-12 17:31:00,66.2,54.9,29.99,WNW,298,9.2,13.8,67,0.00,CLR,OVC,0.30,WeatherDisplay:10.37,2013-03-12 21:31:00,
2013-03-12 17:36:00,66.3,55.8,29.99,NNE,28,6.9,15.0,69,0.00,CLR,OVC,0.30,WeatherDisplay:10.37,2013-03-12 21:36:00,
2013-03-12 17:41:00,66.9,56.0,29.99,WNW,302,4.2,8.1,68,0.00,CLR,OVC,0.30,WeatherDisplay:10.37,2013-03-12 21:41:00,
2013-03-12 17:46:00,66.9,56.0,29.99,North,353,10.9,17.3,68,0.00,CLR,OVC,0.30,WeatherDisplay:10.37,2013-03-12 21:46:00,
2013-03-12 17:51:00,66.4,56.3,29.99,West,263,6.1,11.5,70,0.00,CLR,OVC,0.30,WeatherDisplay:10.37,2013-03-12 21:51:00,
2013-03-12 17:56:00,66.3,55.8,29.99,NW,313,7.2,12.7,69,0.00,CLR,OVC,0.30,WeatherDisplay:10.37,2013-03-12 21:56:00,
2013-03-12 18:01:00,66.5,55.6,29.99,NW,320,7.2,11.5,68,0.00,CLR,OVC,0.30,WeatherDisplay:10.37,2013-03-12 22:01:00,
2013-03-12 18:06:00,66.2,55.7,29.99,NW,323,7.2,13.8,69,0.00,CLR,OVC,0.30,WeatherDisplay:10.37,2013-03-12 22:06:00,
2013-03-12 18:11:00,66.3,55.8,29.99,NW,311,5.1,9.2,69,0.00,CLR,OVC,0.30,WeatherDisplay:10.37,2013-03-12 22:11:00,
2013-03-12 18:16:00,66.1,56.0,29.99,NW,320,4.5,8.1,70,0.00,CLR,OVC,0.30,WeatherDisplay:10.37,2013-03-12 22:16:00,
2013-03-12 18:21:00,65.3,54.9,29.99,NW,315,7.0,15.0,69,0.00,CLR,OVC,0.30,WeatherDisplay:10.37,2013-03-12 22:21:00,
2013-03-12 18:26:00,65.0,55.8,29.99,WNW,294,4.6,8.1,72,0.00,CLR,OVC,0.30,WeatherDisplay:10.37,2013-03-12 22:26:00,
2013-03-12 18:31:00,64.4,55.2,29.99,NW,313,7.8,11.5,72,0.00,CLR,OVC,0.30,WeatherDisplay:10.37,2013-03-12 22:31:00,
2013-03-12 18:36:00,64.3,55.1,29.99,NW,316,5.6,10.4,72,0.00,CLR,OVC,0.30,WeatherDisplay:10.37,2013-03-12 22:36:00,
2013-03-12 18:41:00,64.0,54.8,29.99,NW,312,6.6,10.4,72,0.00,CLR,OVC,0.30,WeatherDisplay:10.37,2013-03-12 22:41:00,
2013-03-12 18:46:00,63.6,54.4,30.00,North,6,5.5,9.2,72,0.00,CLR,OVC,0.30,WeatherDisplay:10.37,2013-03-12 22:46:00,
2013-03-12 18:51:00,63.4,54.2,30.00,WNW,292,3.7,6.9,72,0.00,CLR,OVC,0.30,WeatherDisplay:10.37,2013-03-12 22:51:00,
2013-03-12 18:56:00,62.9,53.7,30.00,NW,320,6.7,13.8,72,0.00,CLR,OVC,0.30,WeatherDisplay:10.37,2013-03-12 22:56:00,
2013-03-12 19:01:00,63.0,54.2,30.00,NW,322,6.2,9.9,73,0.00,CLR,OVC,0.30,WeatherDisplay:10.37,2013-03-12 23:01:00,
2013-03-12 19:06:00,62.8,54.0,30.00,WNW,298,5.1,9.2,73,0.00,CLR,OVC,0.30,WeatherDisplay:10.37,2013-03-12 23:06:00,
2013-03-12 19:11:00,62.7,53.9,30.00,NNE,20,5.4,11.5,73,0.00,CLR,OVC,0.30,WeatherDisplay:10.37,2013-03-12 23:11:00,
2013-03-12 19:16:00,62.6,53.8,30.00,WNW,298,7.9,11.5,73,0.00,CLR,OVC,0.30,WeatherDisplay:10.37,2013-03-12 23:16:00,
2013-03-12 19:21:00,62.5,54.1,30.00,WNW,302,6.2,12.7,74,0.00,CLR,OVC,0.30,WeatherDisplay:10.37,2013-03-12 23:21:00,
2013-03-12 19:26:00,62.5,53.7,30.00,NNW,339,5.2,9.2,73,0.00,CLR,OVC,0.30,WeatherDisplay:10.37,2013-03-12 23:26:00,
2013-03-12 19:31:00,62.4,53.6,30.01,NNW,342,6.6,9.2,73,0.00,CLR,OVC,0.30,WeatherDisplay:10.37,2013-03-12 23:31:00,
2013-03-12 19:36:00,62.2,53.8,30.01,NW,311,3.9,9.2,74,0.00,CLR,OVC,0.30,WeatherDisplay:10.37,2013-03-12 23:36:00,
2013-03-12 19:41:00,62.0,54.0,30.01,North,350,7.1,12.7,75,0.00,CLR,OVC,0.30,WeatherDisplay:10.37,2013-03-12 23:41:00,
2013-03-12 19:46:00,61.8,53.4,30.01,WNW,301,6.6,10.4,74,0.00,CLR,OVC,0.30,WeatherDisplay:10.37,2013-03-12 23:46:00,
2013-03-12 19:51:00,61.8,53.8,30.01,NW,322,5.2,9.2,75,0.00,CLR,OVC,0.30,WeatherDisplay:10.37,2013-03-12 23:51:00,
2013-03-12 19:56:00,61.7,54.1,30.01,NNE,14,0.8,4.2,76,0.00,CLR,OVC,0.30,WeatherDisplay:10.37,2013-03-12 23:56:00,
2013-03-12 20:01:00,61.8,47.8,30.01,NW,320,2.5,5.8,60,0.00,CLR,OVC,0.30,WeatherDisplay:10.37,2013-03-13 00:01:00,
2013-03-12 20:06:00,61.6,47.6,30.02,NW,308,6.9,11.5,60,0.00,CLR,OVC,0.30,WeatherDisplay:10.37,2013-03-13 00:06:00,
2013-03-12 20:11:00,61.6,54.0,30.02,WNW,296,4.0,9.2,76,0.00,CLR,OVC,0.30,WeatherDisplay:10.37,2013-03-13 00:11:00,
2013-03-12 20:16:00,61.4,53.8,30.02,NW,305,6.1,12.7,76,0.00,CLR,OVC,0.30,WeatherDisplay:10.37,2013-03-13 00:16:00,
2013-03-12 20:21:00,61.5,54.6,30.02,WNW,282,4.6,8.1,78,0.00,CLR,OVC,0.30,WeatherDisplay:10.37,2013-03-13 00:21:00,
2013-03-12 20:26:00,61.7,54.8,30.02,North,353,4.6,10.4,78,0.00,CLR,OVC,0.30,WeatherDisplay:10.37,2013-03-13 00:26:00,
2013-03-12 20:32:00,61.5,54.2,30.02,North,8,5.4,11.5,77,0.00,CLR,OVC,0.30,WeatherDisplay:10.37,2013-03-13 00:32:00,
2013-03-12 20:37:00,61.5,54.2,30.02,North,3,7.1,9.2,77,0.00,CLR,OVC,0.30,WeatherDisplay:10.37,2013-03-13 00:37:00,
2013-03-12 20:42:00,61.4,54.1,30.02,NNW,332,4.9,10.4,77,0.00,CLR,OVC,0.30,WeatherDisplay:10.37,2013-03-13 00:42:00,
2013-03-12 20:47:00,61.4,54.1,30.03,WNW,289,7.6,13.8,77,0.00,CLR,OVC,0.30,WeatherDisplay:10.37,2013-03-13 00:47:00,
2013-03-12 20:52:00,61.3,54.4,30.03,NNW,336,8.7,11.5,78,0.00,CLR,OVC,0.30,WeatherDisplay:10.37,2013-03-13 00:52:00,
2013-03-12 20:57:00,61.3,54.4,30.03,NNW,339,3.3,6.9,78,0.00,CLR,OVC,0.30,WeatherDisplay:10.37,2013-03-13 00:57:00,
2013-03-12 21:02:00,61.4,54.5,30.03,NNE,25,2.1,8.1,78,0.00,CLR,OVC,0.30,WeatherDisplay:10.37,2013-03-13 01:02:00,
2013-03-12 21:07:00,61.2,54.3,30.04,NNE,27,5.6,11.5,78,0.00,CLR,OVC,0.30,WeatherDisplay:10.37,2013-03-13 01:07:00,
2013-03-12 21:12:00,61.2,54.3,30.04,NNW,335,5.3,5.8,78,0.00,CLR,OVC,0.30,WeatherDisplay:10.37,2013-03-13 01:12:00,
2013-03-12 21:17:00,60.9,54.0,30.04,NNW,339,6.3,9.2,78,0.00,CLR,OVC,0.30,WeatherDisplay:10.37,2013-03-13 01:17:00,
2013-03-12 21:23:00,61.1,54.2,30.04,North,359,3.7,8.1,78,0.00,CLR,OVC,0.30,WeatherDisplay:10.37,2013-03-13 01:23:00,
2013-03-12 21:28:00,61.0,54.1,30.05,NNE,14,5.4,6.9,78,0.00,CLR,OVC,0.30,WeatherDisplay:10.37,2013-03-13 01:28:00,
2013-03-12 21:34:00,60.8,54.2,30.05,WNW,299,6.8,11.5,79,0.00,CLR,OVC,0.30,WeatherDisplay:10.37,2013-03-13 01:34:00,
2013-03-12 21:39:00,61.0,54.4,30.05,NNW,330,5.3,9.2,79,0.00,CLR,OVC,0.30,WeatherDisplay:10.37,2013-03-13 01:39:00,
2013-03-12 21:44:00,60.7,53.8,30.05,NW,319,5.7,11.5,78,0.00,CLR,OVC,0.30,WeatherDisplay:10.37,2013-03-13 01:44:00,
2013-03-12 21:49:00,60.7,54.1,30.05,WNW,296,3.4,6.9,79,0.00,CLR,OVC,0.30,WeatherDisplay:10.37,2013-03-13 01:49:00,
2013-03-12 21:54:00,60.6,54.0,30.06,NNW,332,6.0,11.5,79,0.00,CLR,OVC,0.30,WeatherDisplay:10.37,2013-03-13 01:54:00,
2013-03-12 21:59:00,60.5,54.0,30.05,North,352,5.8,8.1,79,0.00,CLR,OVC,0.30,WeatherDisplay:10.37,2013-03-13 01:59:00,
2013-03-12 22:04:00,60.5,53.6,30.05,NW,313,6.9,12.7,78,0.00,CLR,OVC,0.30,WeatherDisplay:10.37,2013-03-13 02:04:00,
2013-03-12 22:09:00,60.6,53.7,30.05,NW,306,5.1,8.1,78,0.00,CLR,OVC,0.30,WeatherDisplay:10.37,2013-03-13 02:09:00,
2013-03-12 22:14:00,60.5,53.6,30.05,NW,326,7.1,12.7,78,0.00,CLR,OVC,0.30,WeatherDisplay:10.37,2013-03-13 02:14:00,
2013-03-12 22:19:00,60.4,53.5,30.05,WNW,302,4.4,12.9,78,0.00,CLR,OVC,0.30,WeatherDisplay:10.37,2013-03-13 02:19:00,
2013-03-12 22:24:00,60.4,53.9,30.05,WNW,287,5.7,10.4,79,0.00,CLR,OVC,0.30,WeatherDisplay:10.37,2013-03-13 02:24:00,
2013-03-12 22:29:00,60.5,54.0,30.06,ENE,58,6.2,8.1,79,0.00,CLR,OVC,0.30,WeatherDisplay:10.37,2013-03-13 02:29:00,
2013-03-12 22:34:00,60.4,53.9,30.06,NW,322,2.8,9.2,79,0.00,CLR,OVC,0.30,WeatherDisplay:10.37,2013-03-13 02:34:00,
2013-03-12 22:40:00,60.5,54.0,30.06,NW,323,4.1,8.1,79,0.00,CLR,OVC,0.30,WeatherDisplay:10.37,2013-03-13 02:40:00,
2013-03-12 22:45:00,60.5,54.0,30.06,WNW,302,4.7,5.8,79,0.00,CLR,OVC,0.30,WeatherDisplay:10.37,2013-03-13 02:45:00,
2013-03-12 22:50:00,60.5,54.0,30.06,North,360,5.3,9.2,79,0.00,CLR,OVC,0.30,WeatherDisplay:10.37,2013-03-13 02:50:00,
2013-03-12 22:55:00,60.5,54.0,30.06,WNW,295,5.6,8.1,79,0.00,CLR,OVC,0.30,WeatherDisplay:10.37,2013-03-13 02:55:00,
2013-03-12 23:00:00,60.6,54.0,30.06,NW,305,4.9,11.5,79,0.00,CLR,OVC,0.30,WeatherDisplay:10.37,2013-03-13 03:00:00,
2013-03-12 23:05:00,60.5,54.0,30.07,NNE,13,7.9,12.7,79,0.00,CLR,OVC,0.30,WeatherDisplay:10.37,2013-03-13 03:05:00,
2013-03-12 23:10:00,60.7,54.5,30.07,WNW,301,7.3,10.4,80,0.00,CLR,OVC,0.30,WeatherDisplay:10.37,2013-03-13 03:10:00,
2013-03-12 23:15:00,60.6,54.0,30.07,NNW,336,3.8,9.2,79,0.00,CLR,OVC,0.30,WeatherDisplay:10.37,2013-03-13 03:15:00,
2013-03-12 23:20:00,60.6,54.4,30.07,North,3,3.8,9.2,80,0.00,CLR,OVC,0.30,WeatherDisplay:10.37,2013-03-13 03:20:00,
2013-03-12 23:25:00,60.7,54.5,30.07,NNE,14,3.9,8.1,80,0.00,CLR,OVC,0.30,WeatherDisplay:10.37,2013-03-13 03:25:00,
2013-03-12 23:30:00,60.6,54.4,30.08,NNW,337,3.5,6.9,80,0.00,CLR,OVC,0.30,WeatherDisplay:10.37,2013-03-13 03:30:00,
2013-03-12 23:35:00,60.6,54.0,30.07,North,6,6.4,9.2,79,0.00,CLR,OVC,0.30,WeatherDisplay:10.37,2013-03-13 03:35:00,
2013-03-12 23:40:00,60.8,54.2,30.08,NNW,328,5.4,8.3,79,0.00,CLR,OVC,0.30,WeatherDisplay:10.37,2013-03-13 03:40:00,
2013-03-12 23:45:00,60.7,54.1,30.07,NNW,340,3.5,6.9,79,0.00,CLR,OVC,0.30,WeatherDisplay:10.37,2013-03-13 03:45:00,
2013-03-12 23:50:00,60.7,54.1,30.07,North,6,4.4,5.8,79,0.00,CLR,OVC,0.30,WeatherDisplay:10.37,2013-03-13 03:50:00,
2013-03-12 23:55:00,60.7,54.1,30.08,North,359,6.9,12.7,79,0.00,CLR,OVC,0.30,WeatherDisplay:10.37,2013-03-13 03:55:00,